Time;durP1;ratioP1;P1;durP2;ratioP2;P2;SDS_P1;SDS_P2;PMS_P1;PMS_P2;Temp;Humidity;BMP_temperature;BMP_pressure;BME280_temperature;BME280_humidity;BME280_pressure;Samples;Min_cycle;Max_cycle;Signal;HPM_P1;HPM_P2
2023/03/28 00:00:03;;;;;;;1.90;1.40;;;;;;;-0.61;68.24;99968.06;30735401;28;96695;-69
2023/03/28 00:15:04;;;;;;;1.85;1.08;;;;;;;-0.61;68.63;99962.00;30727036;28;96740;-68
2023/03/28 00:30:06;;;;;;;3.28;1.27;;;;;;;-0.65;69.20;99950.06;30612568;28;96779;-69
2023/03/28 00:45:10;;;;;;;1.92;1.23;;;;;;;-0.69;69.17;99952.88;30610283;28;97586;-70
2023/03/28 01:00:11;;;;;;;2.58;1.65;;;;;;;-0.67;69.85;99944.91;30621234;28;97267;-69
2023/03/28 01:15:11;;;;;;;1.77;1.38;;;;;;;-0.58;70.17;99951.31;30629640;28;96709;-70
2023/03/28 01:30:20;;;;;;;2.13;1.67;;;;;;;-0.28;70.27;99948.38;30628667;28;97379;-71
2023/03/28 01:45:33;;;;;;;10.50;1.55;;;;;;;-0.05;70.22;99933.66;30627278;28;97222;-70
2023/03/28 02:00:41;;;;;;;3.45;1.90;;;;;;;0.35;70.90;99918.69;30625435;28;96769;-69
2023/03/28 02:15:45;;;;;;;3.80;1.98;;;;;;;0.53;70.69;99930.44;30622765;28;96705;-69
2023/03/28 02:30:46;;;;;;;5.43;2.67;;;;;;;0.32;71.23;99919.72;30623184;28;96879;-69
2023/03/28 02:46:18;;;;;;;2.88;1.65;;;;;;;0.50;71.58;99928.03;30619704;28;96739;-68
2023/03/28 03:01:19;;;;;;;6.47;2.92;;;;;;;0.68;71.15;99941.56;30619772;28;96819;-69
2023/03/28 03:16:20;;;;;;;3.90;2.60;;;;;;;0.70;71.10;99944.09;30617903;28;97488;-71
2023/03/28 03:31:22;;;;;;;4.35;2.33;;;;;;;0.81;70.69;99952.00;30608397;28;111001;-70
2023/03/28 03:46:22;;;;;;;2.13;1.67;;;;;;;0.78;70.45;99954.84;30611358;28;96716;-67
2023/03/28 04:01:24;;;;;;;4.15;1.33;;;;;;;0.86;70.32;99962.16;30611182;28;96697;-70
2023/03/28 04:16:25;;;;;;;4.78;1.50;;;;;;;0.98;70.00;99974.34;30609955;28;96697;-68
2023/03/28 04:31:28;;;;;;;1.40;1.08;;;;;;;0.98;68.92;99988.31;30616281;28;96657;-71
2023/03/28 04:46:28;;;;;;;1.27;1.10;;;;;;;0.66;69.29;100054.44;30627052;28;96646;-68
2023/03/28 05:01:29;;;;;;;2.25;1.17;;;;;;;0.02;71.00;100062.41;30627638;28;97456;-68
2023/03/28 05:16:29;;;;;;;1.92;1.00;;;;;;;-0.11;72.29;100091.22;30625821;28;96804;-68
2023/03/28 05:31:29;;;;;;;1.92;1.33;;;;;;;0.30;71.96;100111.13;30623925;28;97248;-69
2023/03/28 05:46:30;;;;;;;1.08;0.98;;;;;;;0.37;70.99;100148.25;30621160;28;102598;-67
2023/03/28 06:01:30;;;;;;;3.80;1.13;;;;;;;0.44;70.71;100159.13;30620480;28;110193;-68
2023/03/28 06:16:30;;;;;;;2.10;1.33;;;;;;;0.78;70.25;100189.09;30618820;28;103525;-67
2023/03/28 06:31:31;;;;;;;2.17;1.30;;;;;;;1.40;69.13;100224.09;30616076;28;115580;-66
2023/03/28 06:46:32;;;;;;;2.78;1.00;;;;;;;1.49;67.70;100246.22;30614358;28;97039;-69
2023/03/28 07:01:32;;;;;;;1.38;1.05;;;;;;;1.54;67.26;100269.53;30614710;28;96623;-67
2023/03/28 07:16:32;;;;;;;2.25;1.50;;;;;;;2.15;66.03;100287.88;30613430;28;97628;-68
2023/03/28 07:31:33;;;;;;;4.80;1.83;;;;;;;2.78;64.34;100319.13;30613808;28;97575;-70
2023/03/28 07:46:36;;;;;;;5.25;2.13;;;;;;;3.70;62.79;100334.81;30611138;28;96782;-68
2023/03/28 08:01:36;;;;;;;5.43;1.65;;;;;;;3.69;59.64;100347.16;30609910;28;96882;-69
2023/03/28 08:16:38;;;;;;;2.17;1.60;;;;;;;3.54;60.89;100382.59;30607967;28;97107;-69
2023/03/28 08:31:38;;;;;;;3.20;1.65;;;;;;;5.62;59.46;100369.94;30608466;28;96589;-67
2023/03/28 08:46:41;;;;;;;2.90;1.10;;;;;;;4.31;56.51;100384.41;30607151;28;97048;-68
2023/03/28 09:01:43;;;;;;;1.73;1.20;;;;;;;8.25;54.82;100391.72;30606796;28;97082;-72
2023/03/28 09:17:05;;;;;;;1.25;0.75;;;;;;;5.19;55.11;100437.03;30610155;28;97069;-68
2023/03/28 09:32:22;;;;;;;2.03;0.90;;;;;;;22.71;40.43;100439.69;30622034;28;97229;-67
2023/03/28 09:47:22;;;;;;;2.47;1.20;;;;;;;15.53;36.03;100449.13;30621718;28;97508;-71
2023/03/28 10:02:31;;;;;;;2.42;1.40;;;;;;;13.52;35.62;100452.34;30622090;28;97290;-69
2023/03/28 10:17:34;;;;;;;1.83;0.87;;;;;;;17.47;34.32;100465.03;30619955;28;97597;-69
2023/03/28 10:32:34;;;;;;;4.23;0.73;;;;;;;24.77;20.71;100482.50;30618056;28;96815;-74
2023/03/28 10:47:34;;;;;;;1.85;0.73;;;;;;;24.17;18.01;100468.78;30617632;28;96881;-72
2023/03/28 11:02:55;;;;;;;6.68;1.10;;;;;;;35.17;10.91;100496.97;30616909;28;97431;-73
2023/03/28 11:18:09;;;;;;;3.63;0.73;;;;;;;19.70;17.92;100512.25;30614776;28;97283;-68
2023/03/28 11:33:20;;;;;;;2.67;0.97;;;;;;;28.10;13.89;100538.50;30611978;28;97498;-67
2023/03/28 11:48:43;;;;;;;3.20;0.80;;;;;;;28.69;12.31;100552.50;30610610;28;96732;-73
2023/03/28 12:03:43;;;;;;;1.73;0.97;;;;;;;14.82;23.69;100602.06;30609994;28;96793;-70
2023/03/28 12:18:48;;;;;;;4.72;1.00;;;;;;;22.65;18.60;100566.38;30607869;28;97117;-75
2023/03/28 12:34:13;;;;;;;2.27;1.00;;;;;;;13.21;27.91;100621.78;30602144;28;97459;-72
2023/03/28 12:49:22;;;;;;;2.10;1.10;;;;;;;18.85;25.30;100589.91;30597232;28;97934;-68
2023/03/28 13:04:42;;;;;;;2.33;1.20;;;;;;;24.62;19.37;100598.38;30626057;28;96747;-74
2023/03/28 13:20:24;;;;;;;3.93;1.37;;;;;;;19.88;22.44;100587.97;30625772;28;96877;-69
2023/03/28 13:35:36;;;;;;;6.73;1.30;;;;;;;13.57;26.75;100603.53;30624587;28;96845;-66
2023/03/28 13:50:37;;;;;;;5.17;1.20;;;;;;;9.25;34.36;100645.94;30623633;28;97303;-66
2023/03/28 14:05:43;;;;;;;1.87;1.20;;;;;;;9.24;35.84;100628.31;30616546;28;96789;-70
2023/03/28 14:20:45;;;;;;;2.07;1.20;;;;;;;8.88;35.19;100639.72;30611353;28;97111;-67
2023/03/28 14:36:01;;;;;;;2.43;1.20;;;;;;;8.51;36.07;100629.16;30617390;28;98656;-68
2023/03/28 14:51:04;;;;;;;3.53;1.30;;;;;;;6.94;35.12;100650.41;30632355;28;96968;-69
2023/03/28 15:06:15;;;;;;;4.13;1.58;;;;;;;5.63;34.24;100677.38;30598734;28;97383;-68
2023/03/28 15:21:15;;;;;;;2.75;1.00;;;;;;;4.71;34.07;100684.63;30598883;28;96847;-64
2023/03/28 15:36:24;;;;;;;3.35;1.70;;;;;;;3.97;33.12;100697.34;30604531;28;96870;-66
2023/03/28 15:51:25;;;;;;;1.95;1.02;;;;;;;3.64;33.03;100707.63;30602222;28;97573;-66
2023/03/28 16:06:37;;;;;;;2.50;1.30;;;;;;;3.29;33.93;100718.94;30600749;28;97274;-70
2023/03/28 16:21:38;;;;;;;2.20;1.35;;;;;;;3.09;34.05;100733.53;30596791;28;97617;-69
2023/03/28 16:36:38;;;;;;;3.72;1.35;;;;;;;2.88;34.70;100756.91;30594884;28;115136;-66
2023/03/28 16:51:38;;;;;;;1.42;1.08;;;;;;;2.59;35.05;100774.72;30596543;28;109306;-66
2023/03/28 17:06:39;;;;;;;4.40;1.33;;;;;;;2.19;35.68;100775.59;30603009;28;115028;-66
2023/03/28 17:21:39;;;;;;;2.45;1.38;;;;;;;1.75;36.44;100806.47;30726275;28;96753;-66
2023/03/28 17:36:40;;;;;;;5.22;1.77;;;;;;;1.37;37.03;100814.13;30727732;28;96592;-66
2023/03/28 17:51:40;;;;;;;3.25;1.65;;;;;;;1.03;37.86;100827.53;30745107;28;97194;-64
2023/03/28 18:06:40;;;;;;;4.97;2.10;;;;;;;0.70;38.39;100846.13;30712944;28;96983;-65
2023/03/28 18:21:41;;;;;;;4.40;2.00;;;;;;;0.54;39.22;100859.31;30615813;28;112682;-64
2023/03/28 18:36:42;;;;;;;4.53;1.83;;;;;;;0.35;39.18;100877.88;30613303;28;98121;-64
2023/03/28 18:51:42;;;;;;;3.58;1.85;;;;;;;0.17;39.22;100889.28;30618760;28;96937;-66
2023/03/28 19:06:43;;;;;;;6.22;2.63;;;;;;;-0.06;39.46;100890.56;30611557;28;105391;-64
2023/03/28 19:21:44;;;;;;;4.70;2.55;;;;;;;-0.32;40.43;100883.31;30607207;28;97792;-64
2023/03/28 19:36:45;;;;;;;8.48;3.13;;;;;;;-0.49;40.66;100892.06;30607159;28;97132;-65
2023/03/28 19:51:45;;;;;;;6.30;2.83;;;;;;;-0.64;41.10;100896.31;30612668;28;96723;-64
2023/03/28 20:06:47;;;;;;;10.27;4.03;;;;;;;-0.84;41.45;100898.22;30613550;28;97451;-64
2023/03/28 20:21:47;;;;;;;13.75;5.25;;;;;;;-1.14;42.52;100891.00;30610148;28;96909;-64
2023/03/28 20:36:49;;;;;;;13.65;7.47;;;;;;;-1.52;43.62;100878.09;30611175;28;97252;-64
2023/03/28 20:51:50;;;;;;;16.38;7.53;;;;;;;-1.80;44.99;100878.59;30608986;28;98440;-64
2023/03/28 21:06:50;;;;;;;25.38;11.40;;;;;;;-1.93;44.96;100888.78;30609394;28;96758;-68
2023/03/28 21:21:51;;;;;;;13.13;5.97;;;;;;;-2.00;46.56;100895.22;30625427;28;98438;-64
2023/03/28 21:36:51;;;;;;;14.15;7.70;;;;;;;-2.06;47.44;100901.56;30628154;28;96945;-67
2023/03/28 21:51:52;;;;;;;17.52;7.15;;;;;;;-2.09;49.12;100906.91;30626515;28;97367;-64
2023/03/28 22:06:54;;;;;;;10.43;5.72;;;;;;;-2.06;49.51;100912.84;30626018;28;97112;-65
2023/03/28 22:21:59;;;;;;;24.33;8.13;;;;;;;-2.17;49.88;100915.13;30622670;28;96690;-64
2023/03/28 22:37:00;;;;;;;14.60;7.53;;;;;;;-2.32;51.51;100918.41;30623379;28;96775;-64
2023/03/28 22:52:00;;;;;;;20.58;10.85;;;;;;;-2.38;51.83;100912.56;30620914;28;108958;-66
2023/03/28 23:07:01;;;;;;;22.67;10.27;;;;;;;-2.47;52.90;100896.50;30620037;28;96632;-65
2023/03/28 23:22:01;;;;;;;16.48;7.85;;;;;;;-2.47;54.00;100886.06;30618090;28;96774;-66
2023/03/28 23:37:02;;;;;;;15.00;7.50;;;;;;;-2.66;54.61;100886.03;30616788;28;106039;-65
2023/03/28 23:52:02;;;;;;;23.20;11.43;;;;;;;-2.89;55.08;100890.47;30629887;28;96792;-65
